createdAt,value
2022-07-31T00:01:21.604Z,8.43
2022-07-31T00:03:48.304Z,10.80
2022-07-31T00:07:02.279Z,9.18
2022-07-31T00:09:52.541Z,7.65
2022-07-31T00:12:21.634Z,5.50
2022-07-31T00:14:49.656Z,6.37
2022-07-31T00:17:16.400Z,5.22
2022-07-31T00:19:43.016Z,8.70
2022-07-31T00:22:09.693Z,6.30
2022-07-31T00:24:48.522Z,5.32
2022-07-31T00:27:15.133Z,7.47
2022-07-31T00:29:41.788Z,7.05
2022-07-31T00:32:08.474Z,7.82
2022-07-31T00:34:35.130Z,6.45
2022-07-31T00:37:01.986Z,7.25
2022-07-31T00:42:58.857Z,7.68
2022-07-31T00:45:29.005Z,7.32
2022-07-31T00:47:56.065Z,6.05
2022-07-31T00:50:22.645Z,7.75
2022-07-31T00:52:51.564Z,7.25
2022-07-31T00:55:18.745Z,6.75
2022-07-31T00:57:57.692Z,6.82
2022-07-31T01:00:24.389Z,8.35
2022-07-31T01:02:51.063Z,8.10
2022-07-31T01:05:19.047Z,8.38
2022-07-31T01:07:47.266Z,6.60
2022-07-31T01:10:19.485Z,10.23
2022-07-31T01:16:05.172Z,6.47
2022-07-31T01:18:55.827Z,6.53
2022-07-31T01:21:43.550Z,7.03
2022-07-31T01:24:29.822Z,5.45
2022-07-31T01:27:04.776Z,5.90
2022-07-31T01:29:53.654Z,6.35
2022-07-31T01:32:56.874Z,5.20
2022-07-31T01:35:32.567Z,5.25
2022-07-31T01:38:08.735Z,5.05
2022-07-31T01:40:41.346Z,5.55
2022-07-31T01:43:13.965Z,5.07
2022-07-31T01:45:44.605Z,3.83
2022-07-31T01:48:34.190Z,5.28
2022-07-31T01:51:39.293Z,2.90
2022-07-31T01:54:06.517Z,3.83
2022-07-31T01:56:34.669Z,4.22
2022-07-31T01:59:04.064Z,3.22
2022-07-31T02:01:32.957Z,3.22
2022-07-31T02:04:02.923Z,3.47
2022-07-31T02:06:30.197Z,3.47
2022-07-31T02:09:04.131Z,4.60
2022-07-31T02:11:31.454Z,4.87
2022-07-31T02:14:00.802Z,2.60
2022-07-31T02:16:28.140Z,4.87
2022-07-31T02:18:55.635Z,3.95
2022-07-31T02:21:25.933Z,3.53
2022-07-31T02:24:04.855Z,4.03
2022-07-31T02:26:52.586Z,3.05
2022-07-31T02:29:22.812Z,2.83
2022-07-31T02:32:02.478Z,2.37
2022-07-31T02:34:32.065Z,3.85
2022-07-31T02:37:01.315Z,3.72
2022-07-31T02:39:31.240Z,3.87
2022-07-31T02:42:04.963Z,4.40
2022-07-31T02:44:34.652Z,3.25
2022-07-31T02:47:02.705Z,3.05
2022-07-31T02:49:30.943Z,5.35
2022-07-31T02:51:58.521Z,3.22
2022-07-31T02:54:26.193Z,3.78
2022-07-31T02:57:41.162Z,2.90
2022-07-31T03:00:42.912Z,3.10
2022-07-31T03:03:11.252Z,3.60
2022-07-31T03:05:37.838Z,4.97
2022-07-31T03:08:04.779Z,2.55
2022-07-31T03:10:31.387Z,3.42
2022-07-31T03:12:59.007Z,3.87
2022-07-31T03:15:27.262Z,3.30
2022-07-31T03:18:00.870Z,2.85
2022-07-31T03:20:29.236Z,3.95
2022-07-31T03:22:56.387Z,5.40
2022-07-31T03:25:23.725Z,3.25
2022-07-31T03:27:55.628Z,4.87
2022-07-31T03:30:26.898Z,3.67
2022-07-31T03:33:13.581Z,4.28
2022-07-31T03:35:53.254Z,2.90
2022-07-31T03:38:42.331Z,3.47
2022-07-31T03:41:06.957Z,4.28
2022-07-31T03:43:46.973Z,6.10
2022-07-31T03:46:17.299Z,4.47
2022-07-31T03:48:44.676Z,6.07
2022-07-31T03:51:17.320Z,3.37
2022-07-31T03:53:46.317Z,4.95
2022-07-31T03:56:13.539Z,4.95
2022-07-31T03:58:40.339Z,5.28
2022-07-31T04:01:08.925Z,7.20
2022-07-31T04:03:39.362Z,6.87
2022-07-31T04:06:16.177Z,5.07
2022-07-31T04:09:18.994Z,4.35
2022-07-31T04:12:05.835Z,3.75
2022-07-31T04:14:32.959Z,5.15
2022-07-31T04:16:59.734Z,4.18
2022-07-31T04:19:26.585Z,5.35
2022-07-31T04:21:53.183Z,5.37
2022-07-31T04:24:21.780Z,4.65
2022-07-31T04:27:00.301Z,4.50
2022-07-31T04:29:29.820Z,7.20
2022-07-31T04:31:57.228Z,4.72
2022-07-31T04:34:23.920Z,4.95
2022-07-31T04:36:50.557Z,4.60
2022-07-31T04:39:17.217Z,6.07
2022-07-31T04:45:03.985Z,4.75
2022-07-31T04:47:30.624Z,7.28
2022-07-31T04:49:57.252Z,6.00
2022-07-31T04:52:26.562Z,3.75
2022-07-31T04:54:53.164Z,3.67
2022-07-31T04:57:21.907Z,5.00
2022-07-31T05:00:00.572Z,5.10
2022-07-31T05:02:28.007Z,4.65
2022-07-31T05:04:57.134Z,3.40
2022-07-31T05:07:24.593Z,5.60
2022-07-31T05:09:54.452Z,5.45
2022-07-31T05:12:21.106Z,4.85
2022-07-31T05:14:47.731Z,5.78
2022-07-31T05:17:14.315Z,7.60
2022-07-31T05:19:40.937Z,5.10
2022-07-31T05:22:07.755Z,3.28
2022-07-31T05:24:34.796Z,5.05
2022-07-31T05:27:02.789Z,5.12
2022-07-31T05:29:29.964Z,4.78
2022-07-31T05:32:00.349Z,3.42
2022-07-31T05:34:30.107Z,4.80
2022-07-31T05:37:01.161Z,4.93
2022-07-31T05:39:28.686Z,6.00
2022-07-31T05:41:55.310Z,6.72
2022-07-31T05:44:22.003Z,3.87
2022-07-31T05:49:17.981Z,4.20
2022-07-31T05:51:45.600Z,4.97
2022-07-31T05:54:12.263Z,4.65
2022-07-31T05:56:38.894Z,4.97
2022-07-31T05:59:05.554Z,2.92
2022-07-31T06:01:44.238Z,4.47
2022-07-31T06:04:30.817Z,4.50
2022-07-31T06:06:57.523Z,5.15
2022-07-31T06:09:24.123Z,5.30
2022-07-31T06:11:50.746Z,4.00
2022-07-31T06:14:17.365Z,5.40
2022-07-31T06:16:45.528Z,5.30
2022-07-31T06:19:12.135Z,3.25
2022-07-31T06:21:38.736Z,4.60
2022-07-31T06:24:05.884Z,7.20
2022-07-31T06:26:34.248Z,3.22
2022-07-31T06:29:00.863Z,4.70
2022-07-31T06:31:27.486Z,4.87
2022-07-31T06:33:54.122Z,4.95
2022-07-31T06:36:20.791Z,4.93
2022-07-31T06:38:47.417Z,7.90
2022-07-31T06:41:32.621Z,4.57
2022-07-31T06:43:59.268Z,9.27
2022-07-31T06:46:25.900Z,3.87
2022-07-31T06:48:52.576Z,5.10
2022-07-31T06:51:34.754Z,5.30
2022-07-31T06:54:02.618Z,6.10
2022-07-31T06:56:30.511Z,5.45
2022-07-31T06:58:57.487Z,4.72
2022-07-31T07:01:24.199Z,4.85
2022-07-31T07:03:51.137Z,6.18
2022-07-31T07:06:27.488Z,5.35
2022-07-31T07:08:54.632Z,3.75
2022-07-31T07:11:21.605Z,4.12
2022-07-31T07:13:48.307Z,3.87
2022-07-31T07:16:16.094Z,2.90
2022-07-31T07:18:43.457Z,3.72
2022-07-31T07:21:22.767Z,3.42
2022-07-31T07:24:09.429Z,2.90
2022-07-31T07:26:36.134Z,3.67
2022-07-31T07:29:03.323Z,4.22
2022-07-31T07:31:30.031Z,3.90
2022-07-31T07:33:56.666Z,3.92
2022-07-31T07:36:24.844Z,3.78
2022-07-31T07:38:53.868Z,4.85
2022-07-31T07:41:23.423Z,4.55
2022-07-31T07:43:52.814Z,4.80
2022-07-31T07:46:23.936Z,3.33
2022-07-31T07:48:51.211Z,2.92
2022-07-31T07:51:18.406Z,4.37
2022-07-31T07:53:45.208Z,5.20
2022-07-31T07:56:11.853Z,3.92
2022-07-31T07:58:38.652Z,2.30
2022-07-31T08:01:06.074Z,3.28
2022-07-31T08:03:49.497Z,3.67
2022-07-31T08:06:19.755Z,4.28
2022-07-31T08:08:51.746Z,2.83
2022-07-31T08:11:19.236Z,2.83
2022-07-31T08:13:50.602Z,4.25
2022-07-31T08:16:19.456Z,2.67
2022-07-31T08:18:46.186Z,3.30
2022-07-31T08:21:12.828Z,2.47
2022-07-31T08:23:39.470Z,3.05
2022-07-31T08:30:00.318Z,3.17
2022-07-31T08:32:28.186Z,1.75
2022-07-31T08:34:55.755Z,2.10
2022-07-31T08:37:52.654Z,1.80
2022-07-31T08:40:09.702Z,1.87
2022-07-31T08:42:37.680Z,2.22
2022-07-31T08:45:08.490Z,1.48
2022-07-31T08:47:36.139Z,2.60
2022-07-31T08:50:05.780Z,1.65
2022-07-31T08:52:34.322Z,3.67
2022-07-31T08:55:06.153Z,1.48
2022-07-31T08:57:33.401Z,3.43
2022-07-31T09:00:00.069Z,1.62
2022-07-31T09:02:26.764Z,1.80
2022-07-31T09:04:53.534Z,2.92
2022-07-31T09:07:20.429Z,3.00
2022-07-31T09:09:52.218Z,1.50
2022-07-31T09:12:34.074Z,2.95
2022-07-31T09:15:01.592Z,2.40
2022-07-31T09:17:36.269Z,2.03
2022-07-31T09:20:05.622Z,1.10
2022-07-31T09:22:32.351Z,1.87
2022-07-31T09:25:19.331Z,3.15
2022-07-31T09:27:48.020Z,3.05
2022-07-31T09:30:15.844Z,2.53
2022-07-31T09:32:43.329Z,2.33
2022-07-31T09:35:12.273Z,2.40
2022-07-31T09:37:40.219Z,2.62
2022-07-31T09:40:08.211Z,3.72
2022-07-31T09:42:45.837Z,3.47
2022-07-31T09:45:27.851Z,2.67
2022-07-31T09:48:06.443Z,2.20
2022-07-31T09:50:33.346Z,3.50
2022-07-31T09:53:02.979Z,3.83
2022-07-31T09:55:29.687Z,2.25
2022-07-31T09:57:58.674Z,2.78
2022-07-31T10:00:46.637Z,2.28
2022-07-31T10:03:39.238Z,3.08
2022-07-31T10:06:16.341Z,3.70
2022-07-31T10:08:46.344Z,3.08
2022-07-31T10:11:20.178Z,1.60
2022-07-31T10:13:49.487Z,4.90
2022-07-31T10:16:16.537Z,4.12
2022-07-31T10:18:59.085Z,2.08
2022-07-31T10:21:33.833Z,3.10
2022-07-31T10:24:02.602Z,3.22
2022-07-31T10:26:57.435Z,2.65
2022-07-31T10:29:17.790Z,2.35
2022-07-31T10:31:45.995Z,3.10
2022-07-31T10:34:40.997Z,1.95
2022-07-31T10:37:54.644Z,2.95
2022-07-31T10:40:29.378Z,1.75
2022-07-31T10:43:13.800Z,3.90
2022-07-31T10:45:49.111Z,2.72
2022-07-31T10:48:16.090Z,2.50
2022-07-31T10:50:43.466Z,5.80
2022-07-31T10:53:18.763Z,1.60
2022-07-31T10:55:45.536Z,3.97
2022-07-31T10:58:15.789Z,3.25
2022-07-31T11:00:43.220Z,2.78
2022-07-31T11:03:20.810Z,3.55
2022-07-31T11:06:01.675Z,2.85
2022-07-31T11:08:57.537Z,1.70
2022-07-31T11:12:02.720Z,2.45
2022-07-31T11:14:33.820Z,3.25
2022-07-31T11:17:00.730Z,1.95
2022-07-31T11:19:41.383Z,2.15
2022-07-31T11:22:31.555Z,3.28
2022-07-31T11:24:59.185Z,3.78
2022-07-31T11:27:38.682Z,2.80
2022-07-31T11:30:12.392Z,3.42
2022-07-31T11:32:40.282Z,2.17
2022-07-31T11:35:07.611Z,2.65
2022-07-31T11:37:56.270Z,4.28
2022-07-31T11:40:22.465Z,3.08
2022-07-31T11:43:28.248Z,3.30
2022-07-31T11:46:04.961Z,1.62
2022-07-31T11:48:45.524Z,2.15
2022-07-31T11:51:18.877Z,1.62
2022-07-31T11:53:46.188Z,2.28
2022-07-31T11:56:24.933Z,2.75
2022-07-31T11:58:54.898Z,2.90
2022-07-31T12:01:36.941Z,2.17
2022-07-31T12:04:08.625Z,4.60
2022-07-31T12:06:36.956Z,2.97
2022-07-31T12:09:04.422Z,2.55
2022-07-31T12:11:31.089Z,1.75
2022-07-31T12:13:59.418Z,1.75
2022-07-31T12:16:26.261Z,2.50
2022-07-31T12:19:06.079Z,2.53
2022-07-31T12:21:43.960Z,2.17
2022-07-31T12:24:13.021Z,2.58
2022-07-31T12:26:43.937Z,3.87
2022-07-31T12:29:13.192Z,1.70
2022-07-31T12:31:51.156Z,1.48
2022-07-31T12:34:30.806Z,2.65
2022-07-31T12:37:15.323Z,2.70
2022-07-31T12:39:59.711Z,2.12
2022-07-31T12:42:34.184Z,1.52
2022-07-31T12:45:18.240Z,1.85
2022-07-31T12:47:51.626Z,1.40
2022-07-31T12:50:20.223Z,1.67
2022-07-31T12:53:17.993Z,2.80
2022-07-31T12:56:01.376Z,1.73
2022-07-31T12:58:28.113Z,3.60
2022-07-31T13:00:57.085Z,1.45
2022-07-31T13:03:23.715Z,1.90
2022-07-31T13:06:05.911Z,0.97
2022-07-31T13:08:33.618Z,1.92
2022-07-31T13:11:12.260Z,1.95
2022-07-31T13:13:38.888Z,2.05
2022-07-31T13:16:05.739Z,3.15
2022-07-31T13:18:33.990Z,1.77
2022-07-31T13:21:00.838Z,2.10
2022-07-31T13:23:28.024Z,1.73
2022-07-31T13:26:03.899Z,1.37
2022-07-31T13:28:52.035Z,2.67
2022-07-31T13:31:39.274Z,0.85
2022-07-31T13:34:06.876Z,3.00
2022-07-31T13:36:39.038Z,1.95
2022-07-31T13:39:07.992Z,1.02
2022-07-31T13:41:35.696Z,2.03
2022-07-31T13:44:03.574Z,1.77
2022-07-31T13:46:39.247Z,3.55
2022-07-31T13:49:09.377Z,1.80
2022-07-31T13:51:37.532Z,2.17
2022-07-31T13:54:04.639Z,1.40
2022-07-31T13:56:39.234Z,2.60
2022-07-31T13:59:09.902Z,1.98
2022-07-31T14:02:13.318Z,2.62
2022-07-31T14:04:55.306Z,3.22
2022-07-31T14:07:21.916Z,2.75
2022-07-31T14:09:55.087Z,1.55
2022-07-31T14:12:22.259Z,2.05
2022-07-31T14:14:48.867Z,1.00
2022-07-31T14:17:15.454Z,1.02
2022-07-31T14:20:00.555Z,2.05
2022-07-31T14:22:27.227Z,2.17
2022-07-31T14:24:53.938Z,3.70
2022-07-31T14:27:20.780Z,1.20
2022-07-31T14:29:47.993Z,1.75
2022-07-31T14:32:14.615Z,2.15
2022-07-31T14:34:41.226Z,3.80
2022-07-31T14:37:51.530Z,2.37
2022-07-31T14:40:38.195Z,3.25
2022-07-31T14:43:04.833Z,2.65
2022-07-31T14:45:31.555Z,2.40
2022-07-31T14:48:05.949Z,3.60
2022-07-31T14:50:32.569Z,1.85
2022-07-31T14:52:59.441Z,3.10
2022-07-31T14:55:41.436Z,2.03
2022-07-31T14:58:08.338Z,2.80
2022-07-31T15:00:35.200Z,3.17
2022-07-31T15:03:01.900Z,2.62
2022-07-31T15:06:41.961Z,2.75
2022-07-31T15:08:17.469Z,2.53
2022-07-31T15:11:08.169Z,2.90
2022-07-31T15:14:15.213Z,4.35
2022-07-31T15:16:41.882Z,4.25
2022-07-31T15:19:08.529Z,2.17
2022-07-31T15:21:37.029Z,2.10
2022-07-31T15:24:04.519Z,2.75
2022-07-31T15:26:31.916Z,1.10
2022-07-31T15:29:13.961Z,3.00
2022-07-31T15:31:40.559Z,1.97
2022-07-31T15:34:07.191Z,1.90
2022-07-31T15:36:33.818Z,2.53
2022-07-31T15:39:00.459Z,2.03
2022-07-31T15:41:27.194Z,1.95
2022-07-31T15:43:53.819Z,1.92
2022-07-31T15:49:44.041Z,1.62
2022-07-31T15:52:16.763Z,2.00
2022-07-31T15:54:45.754Z,2.72
2022-07-31T15:57:12.410Z,5.28
2022-07-31T15:59:39.011Z,2.47
2022-07-31T16:02:06.792Z,2.78
2022-07-31T16:04:53.502Z,2.53
2022-07-31T16:08:30.039Z,5.15
2022-07-31T16:10:15.693Z,2.00
2022-07-31T16:12:46.811Z,3.30
2022-07-31T16:15:14.316Z,3.15
2022-07-31T16:17:41.634Z,2.97
2022-07-31T16:20:39.387Z,3.15
2022-07-31T16:23:27.527Z,3.58
2022-07-31T16:25:54.683Z,7.70
2022-07-31T16:28:21.484Z,2.80
2022-07-31T16:30:48.093Z,2.55
2022-07-31T16:33:14.765Z,1.98
2022-07-31T16:35:41.618Z,2.20
2022-07-31T16:38:27.158Z,2.05
2022-07-31T16:40:53.893Z,4.40
2022-07-31T16:43:49.161Z,3.05
2022-07-31T16:46:07.349Z,2.87
2022-07-31T16:48:34.227Z,2.47
2022-07-31T16:51:01.408Z,4.90
2022-07-31T16:54:13.349Z,6.32
2022-07-31T16:59:57.479Z,2.30
2022-07-31T17:02:23.187Z,4.45
2022-07-31T17:04:53.882Z,4.40
2022-07-31T17:07:20.786Z,1.83
2022-07-31T17:09:47.517Z,1.85
2022-07-31T17:12:14.141Z,3.47
2022-07-31T17:14:50.813Z,2.90
2022-07-31T17:17:21.229Z,2.40
2022-07-31T17:19:48.131Z,2.62
2022-07-31T17:22:22.376Z,2.08
2022-07-31T17:24:51.080Z,2.28
2022-07-31T17:27:19.407Z,4.30
2022-07-31T17:30:06.055Z,3.12
2022-07-31T17:32:50.563Z,2.92
2022-07-31T17:35:17.722Z,2.70
2022-07-31T17:37:44.363Z,2.90
2022-07-31T17:40:33.620Z,4.82
2022-07-31T17:42:57.873Z,2.28
2022-07-31T17:45:28.049Z,3.50
2022-07-31T17:48:26.665Z,1.98
2022-07-31T17:50:54.337Z,2.85
2022-07-31T17:53:21.209Z,2.17
2022-07-31T17:55:49.516Z,2.67
2022-07-31T17:58:16.253Z,3.83
2022-07-31T18:00:43.018Z,2.58
2022-07-31T18:03:53.384Z,2.65
2022-07-31T18:06:54.603Z,2.83
2022-07-31T18:09:23.514Z,3.33
2022-07-31T18:11:51.928Z,2.62
2022-07-31T18:14:18.977Z,4.22
2022-07-31T18:16:46.356Z,3.20
2022-07-31T18:19:13.831Z,2.83
2022-07-31T18:21:48.574Z,3.37
2022-07-31T18:24:15.272Z,2.75
2022-07-31T18:26:41.980Z,2.40
2022-07-31T18:29:08.606Z,2.28
2022-07-31T18:31:36.036Z,2.42
2022-07-31T18:34:06.937Z,2.33
2022-07-31T18:36:34.902Z,2.80
2022-07-31T18:39:49.240Z,2.40
2022-07-31T18:42:20.871Z,3.65
2022-07-31T18:44:47.506Z,2.62
2022-07-31T18:47:14.123Z,3.00
2022-07-31T18:50:59.212Z,3.58
2022-07-31T18:52:27.457Z,2.22
2022-07-31T18:54:54.564Z,2.25
2022-07-31T18:57:33.150Z,3.28
2022-07-31T18:59:59.795Z,2.87
2022-07-31T19:02:26.556Z,1.83
2022-07-31T19:04:53.238Z,2.58
2022-07-31T19:07:20.189Z,2.53
2022-07-31T19:09:46.946Z,7.75
2022-07-31T19:13:00.966Z,2.37
2022-07-31T19:15:58.742Z,1.90
2022-07-31T19:18:28.667Z,2.28
2022-07-31T19:21:23.025Z,2.25
2022-07-31T19:23:46.426Z,2.12
2022-07-31T19:26:13.142Z,2.40
2022-07-31T19:28:40.204Z,1.60
2022-07-31T19:31:13.432Z,3.75
2022-07-31T19:33:40.691Z,1.90
2022-07-31T19:36:09.568Z,3.05
2022-07-31T19:38:36.777Z,1.77
2022-07-31T19:41:04.331Z,3.97
2022-07-31T19:43:31.047Z,2.40
2022-07-31T19:46:11.894Z,1.27
2022-07-31T19:49:03.815Z,4.10
2022-07-31T19:51:48.881Z,3.20
2022-07-31T19:54:15.529Z,2.90
2022-07-31T19:56:42.182Z,2.17
2022-07-31T19:59:08.809Z,6.50
2022-07-31T20:01:36.589Z,3.15
2022-07-31T20:04:03.227Z,1.73
2022-07-31T20:06:45.067Z,1.58
2022-07-31T20:09:11.711Z,4.00
2022-07-31T20:11:38.326Z,2.37
2022-07-31T20:14:04.935Z,2.17
2022-07-31T20:16:32.821Z,2.95
2022-07-31T20:19:00.446Z,3.60
2022-07-31T20:22:11.310Z,3.45
2022-07-31T20:24:59.869Z,2.72
2022-07-31T20:27:28.315Z,3.17
2022-07-31T20:29:55.018Z,2.70
2022-07-31T20:32:21.753Z,3.28
2022-07-31T20:34:50.309Z,1.77
2022-07-31T20:37:16.944Z,2.72
2022-07-31T20:40:00.096Z,2.10
2022-07-31T20:42:28.008Z,2.08
2022-07-31T20:44:54.705Z,2.75
2022-07-31T20:47:24.484Z,2.40
2022-07-31T20:49:51.398Z,2.47
2022-07-31T20:52:18.315Z,4.43
2022-07-31T20:54:44.905Z,3.62
2022-07-31T20:57:27.187Z,1.83
2022-07-31T21:00:05.024Z,3.83
2022-07-31T21:02:31.665Z,2.35
2022-07-31T21:04:58.289Z,2.25
2022-07-31T21:07:24.914Z,2.72
2022-07-31T21:09:51.720Z,3.72
2022-07-31T21:12:18.409Z,3.60
2022-07-31T21:15:08.254Z,3.83
2022-07-31T21:17:57.731Z,1.67
2022-07-31T21:20:29.192Z,4.28
2022-07-31T21:23:11.601Z,2.90
2022-07-31T21:25:38.588Z,2.42
2022-07-31T21:28:05.815Z,2.47
2022-07-31T21:30:40.496Z,1.85
2022-07-31T21:33:50.104Z,3.75
2022-07-31T21:36:17.009Z,3.28
2022-07-31T21:38:43.824Z,3.10
2022-07-31T21:41:10.821Z,1.87
2022-07-31T21:43:58.194Z,2.33
2022-07-31T21:46:25.477Z,2.58
2022-07-31T21:49:20.221Z,2.33
2022-07-31T21:51:47.146Z,2.78
2022-07-31T21:54:15.564Z,2.25
2022-07-31T21:56:42.406Z,2.50
2022-07-31T21:59:09.025Z,2.42
2022-07-31T22:01:35.690Z,1.67
2022-07-31T22:04:02.388Z,2.65
2022-07-31T22:07:18.241Z,2.60
2022-07-31T22:09:59.801Z,5.22
2022-07-31T22:12:26.505Z,2.70
2022-07-31T22:14:54.658Z,4.22
2022-07-31T22:17:21.324Z,2.62
2022-07-31T22:19:50.189Z,2.20
2022-07-31T22:22:17.154Z,3.05
2022-07-31T22:24:50.594Z,1.95
2022-07-31T22:27:35.762Z,4.30
2022-07-31T22:30:02.573Z,2.37
2022-07-31T22:32:29.705Z,3.03
2022-07-31T22:34:56.607Z,2.87
2022-07-31T22:37:25.745Z,2.80
2022-07-31T22:40:26.981Z,2.05
2022-07-31T22:44:10.046Z,2.28
2022-07-31T22:46:06.117Z,3.65
2022-07-31T22:48:33.091Z,1.90
2022-07-31T22:51:01.497Z,1.77
2022-07-31T22:53:28.110Z,1.55
2022-07-31T22:55:54.779Z,2.37
2022-07-31T22:58:33.754Z,4.22
2022-07-31T23:01:00.468Z,3.67
2022-07-31T23:03:27.062Z,2.17
2022-07-31T23:06:02.519Z,1.60
2022-07-31T23:08:40.277Z,1.60
2022-07-31T23:11:06.974Z,1.98
2022-07-31T23:16:49.641Z,3.30
2022-07-31T23:19:28.489Z,4.37
2022-07-31T23:21:55.105Z,1.73
2022-07-31T23:24:21.772Z,2.58
2022-07-31T23:26:48.413Z,1.75
2022-07-31T23:29:15.220Z,2.65
2022-07-31T23:31:41.841Z,2.60
2022-07-31T23:34:17.414Z,1.98
2022-07-31T23:36:44.648Z,3.58
2022-07-31T23:39:12.917Z,3.67
2022-07-31T23:41:58.720Z,1.75
2022-07-31T23:44:25.966Z,5.30
2022-07-31T23:46:52.680Z,4.65
2022-07-31T23:49:39.833Z,1.90
2022-07-31T23:52:28.091Z,2.17
2022-07-31T23:54:54.697Z,2.05
2022-07-31T23:57:21.738Z,2.30
2022-07-31T23:59:48.580Z,2.35
